Time;durP1;ratioP1;P1;durP2;ratioP2;P2;SDS_P1;SDS_P2;PMS_P1;PMS_P2;Temp;Humidity;BMP_temperature;BMP_pressure;BME280_temperature;BME280_humidity;BME280_pressure;Samples;Min_cycle;Max_cycle;Signal;HPM_P1;HPM_P2
2021/06/12 00:01:44;;;;;;;6.85;5.33;;;;;;;15.29;70.01;96704.64;127876;1093;22808;-92
2021/06/12 00:04:15;;;;;;;5.93;4.75;;;;;;;15.25;69.86;96704.47;127725;1093;114511;-91
2021/06/12 00:06:46;;;;;;;6.60;5.00;;;;;;;15.25;70.03;96701.80;127919;1093;22793;-90
2021/06/12 00:09:17;;;;;;;7.65;4.93;;;;;;;15.30;69.82;96707.00;127906;1093;22796;-90
2021/06/12 00:11:48;;;;;;;8.60;5.43;;;;;;;15.29;70.14;96694.73;127783;1093;114324;-91
2021/06/12 00:14:19;;;;;;;6.48;4.68;;;;;;;15.23;70.04;96690.64;127888;1093;35273;-90
2021/06/12 00:16:50;;;;;;;6.70;4.73;;;;;;;15.18;70.05;96693.41;127766;1093;114612;-89
2021/06/12 00:19:21;;;;;;;7.05;5.03;;;;;;;15.12;70.16;96689.30;127826;1093;23392;-90
2021/06/12 00:21:52;;;;;;;6.05;4.85;;;;;;;15.07;70.38;96687.56;127818;1093;24145;-91
2021/06/12 00:24:23;;;;;;;8.03;5.05;;;;;;;15.04;70.64;96682.02;127736;1094;113525;-90
2021/06/12 00:26:54;;;;;;;6.90;5.20;;;;;;;14.99;70.61;96685.61;127836;1093;22793;-90
2021/06/12 00:29:24;;;;;;;6.98;4.63;;;;;;;14.96;70.91;96688.89;127761;1093;113713;-90
2021/06/12 00:31:56;;;;;;;5.80;4.58;;;;;;;14.98;71.13;96689.38;127842;1093;22790;-92
2021/06/12 00:34:26;;;;;;;7.40;5.33;;;;;;;15.00;71.33;96692.52;127732;1093;113827;-93
2021/06/12 00:36:57;;;;;;;6.78;4.75;;;;;;;15.02;71.20;96681.53;127820;1093;28886;-91
2021/06/12 00:39:28;;;;;;;5.85;4.45;;;;;;;15.00;71.19;96684.52;127841;1093;22957;-90
2021/06/12 00:41:59;;;;;;;7.40;4.93;;;;;;;14.91;71.24;96685.54;127741;1093;114272;-93
2021/06/12 00:44:30;;;;;;;7.05;4.75;;;;;;;14.82;71.23;96686.28;127858;1093;22853;-89
2021/06/12 00:47:01;;;;;;;6.38;4.53;;;;;;;14.77;71.55;96688.27;127768;1093;113991;-92
2021/06/12 00:49:31;;;;;;;5.40;4.55;;;;;;;14.75;71.71;96691.23;127860;1093;22792;-90
2021/06/12 00:52:02;;;;;;;6.25;4.75;;;;;;;14.72;71.85;96686.52;127845;1093;24439;-90
2021/06/12 00:54:35;;;;;;;6.10;4.98;;;;;;;14.62;72.10;96686.73;127740;1092;113512;-94
2021/06/12 00:57:08;;;;;;;6.30;5.23;;;;;;;14.62;72.26;96680.61;127847;1093;22993;-93
2021/06/12 00:59:39;;;;;;;5.48;4.73;;;;;;;14.62;72.24;96689.41;127746;1093;113619;-90
2021/06/12 01:02:10;;;;;;;5.43;4.43;;;;;;;14.62;72.50;96681.41;127841;1093;23248;-91
2021/06/12 01:04:41;;;;;;;7.08;4.73;;;;;;;14.59;72.48;96682.02;127704;1092;113843;-91
2021/06/12 01:07:12;;;;;;;5.85;5.18;;;;;;;14.58;72.69;96684.98;127822;1093;23997;-92
2021/06/12 01:09:43;;;;;;;8.75;5.95;;;;;;;14.55;72.75;96678.38;127851;1093;31549;-93
2021/06/12 01:12:20;;;;;;;6.83;5.10;;;;;;;14.59;72.95;96678.55;127742;1093;113897;-92
2021/06/12 01:14:55;;;;;;;5.68;4.50;;;;;;;14.64;72.90;96679.25;127851;1093;22786;-90
2021/06/12 01:17:32;;;;;;;7.73;5.28;;;;;;;14.69;72.70;96676.45;127756;1092;114063;-89
2021/06/12 01:20:21;;;;;;;6.38;5.20;;;;;;;14.77;72.75;96675.70;127828;1093;24514;-96
2021/06/12 01:23:35;;;;;;;5.73;4.80;;;;;;;14.80;72.55;96677.80;127730;1093;113841;-91
2021/06/12 01:26:12;;;;;;;6.10;5.08;;;;;;;14.84;72.59;96678.76;127871;1092;22911;-95
2021/06/12 01:28:58;;;;;;;6.55;4.95;;;;;;;14.90;72.68;96670.62;127760;1093;114648;-89
2021/06/12 01:31:30;;;;;;;8.13;5.38;;;;;;;14.93;72.81;96678.04;127858;1093;24032;-90
2021/06/12 01:34:03;;;;;;;7.40;5.15;;;;;;;14.95;72.46;96681.19;127841;1093;22793;-91
2021/06/12 01:36:34;;;;;;;6.15;5.10;;;;;;;14.96;72.35;96672.09;127733;1093;113504;-89
2021/06/12 01:39:06;;;;;;;6.03;4.80;;;;;;;14.95;72.23;96671.30;127867;1092;22839;-96
2021/06/12 01:41:39;;;;;;;8.13;5.50;;;;;;;14.87;72.18;96679.23;127720;1093;113639;-95
2021/06/12 01:44:13;;;;;;;7.23;5.48;;;;;;;14.74;72.13;96678.98;127855;1092;23567;-90
2021/06/12 01:46:45;;;;;;;6.15;5.23;;;;;;;14.64;72.11;96676.58;127765;1092;114321;-90
2021/06/12 01:49:18;;;;;;;7.10;5.13;;;;;;;14.61;72.42;96674.48;127897;1093;24540;-91
2021/06/12 01:51:50;;;;;;;6.98;5.48;;;;;;;14.60;72.63;96672.13;127917;1093;22864;-91
2021/06/12 01:54:22;;;;;;;7.70;5.40;;;;;;;14.58;72.71;96669.77;127727;1093;113674;-89
2021/06/12 01:56:55;;;;;;;5.63;5.00;;;;;;;14.54;72.70;96661.58;127826;1093;22827;-91
2021/06/12 01:59:28;;;;;;;8.30;5.25;;;;;;;14.53;73.00;96668.01;127736;1090;113701;-92
2021/06/12 02:02:02;;;;;;;6.60;5.20;;;;;;;14.55;73.21;96671.16;127860;1093;24121;-91
2021/06/12 02:04:38;;;;;;;6.98;5.28;;;;;;;14.58;73.19;96675.10;127713;1093;113821;-91
2021/06/12 02:07:10;;;;;;;6.65;5.28;;;;;;;14.59;73.15;96674.01;127841;1093;23920;-90
2021/06/12 02:09:45;;;;;;;6.23;5.15;;;;;;;14.59;73.31;96675.89;127844;1093;23601;-91
2021/06/12 02:12:18;;;;;;;6.55;5.35;;;;;;;14.54;73.12;96674.13;127805;1093;114155;-90
2021/06/12 02:14:51;;;;;;;6.68;5.03;;;;;;;14.51;73.27;96664.86;127924;1093;22819;-91
2021/06/12 02:17:22;;;;;;;8.55;6.00;;;;;;;14.44;73.12;96669.02;127742;1092;114255;-91
2021/06/12 02:19:53;;;;;;;7.03;5.85;;;;;;;14.38;73.26;96670.99;127821;1093;26405;-90
2021/06/12 02:22:25;;;;;;;6.63;5.20;;;;;;;14.34;73.34;96677.20;127720;1093;114475;-91
2021/06/12 02:24:56;;;;;;;6.48;5.03;;;;;;;14.32;73.54;96663.39;127873;1093;26415;-90
2021/06/12 02:27:27;;;;;;;6.35;4.83;;;;;;;14.32;73.68;96666.84;127880;1092;22799;-91
2021/06/12 02:30:00;;;;;;;6.83;5.35;;;;;;;14.31;73.72;96670.59;127807;1091;113851;-90
2021/06/12 02:32:34;;;;;;;7.23;5.70;;;;;;;14.32;73.82;96669.51;127834;1093;27265;-88
2021/06/12 02:35:06;;;;;;;6.87;4.90;;;;;;;14.31;73.62;96667.14;127756;1093;113663;-93
2021/06/12 02:37:38;;;;;;;7.38;5.48;;;;;;;14.26;73.87;96674.17;127832;1093;24552;-91
2021/06/12 02:40:11;;;;;;;7.53;5.40;;;;;;;14.27;73.59;96669.63;127846;1093;26473;-90
2021/06/12 02:42:42;;;;;;;6.50;5.40;;;;;;;14.21;73.67;96660.94;127802;1093;113693;-89
2021/06/12 02:45:15;;;;;;;6.78;5.13;;;;;;;14.18;73.99;96660.75;127869;1093;25874;-91
2021/06/12 02:47:51;;;;;;;5.93;5.33;;;;;;;14.10;73.95;96664.93;127825;1093;114287;-93
2021/06/12 02:50:26;;;;;;;6.75;5.15;;;;;;;14.09;74.01;96660.69;127847;1093;22854;-89
2021/06/12 02:53:02;;;;;;;6.98;5.35;;;;;;;14.11;74.28;96660.39;127759;1093;114484;-90
2021/06/12 02:55:36;;;;;;;6.80;5.38;;;;;;;14.11;74.21;96655.84;127854;1093;25870;-89
2021/06/12 02:58:09;;;;;;;6.78;5.35;;;;;;;14.13;74.31;96658.20;127857;1093;22819;-90
2021/06/12 03:00:42;;;;;;;7.18;5.70;;;;;;;14.14;74.68;96665.91;127756;1093;114154;-90
2021/06/12 03:03:16;;;;;;;6.48;5.08;;;;;;;14.18;74.50;96664.20;127879;1091;22829;-90
2021/06/12 03:05:50;;;;;;;6.30;5.00;;;;;;;14.19;74.62;96665.78;127828;1093;113669;-88
2021/06/12 03:08:23;;;;;;;8.10;5.50;;;;;;;14.21;74.51;96676.94;127894;1093;22812;-88
2021/06/12 03:10:56;;;;;;;6.35;5.23;;;;;;;14.21;74.65;96665.48;127754;1093;114200;-89
2021/06/12 03:13:29;;;;;;;8.00;5.55;;;;;;;14.22;74.44;96669.75;127842;1091;22851;-91
2021/06/12 03:16:01;;;;;;;5.30;4.60;;;;;;;14.21;74.51;96676.94;127850;1093;22774;-92
2021/06/12 03:18:33;;;;;;;6.63;5.05;;;;;;;14.16;74.82;96677.05;127756;1093;114608;-90
2021/06/12 03:21:06;;;;;;;5.25;4.50;;;;;;;14.15;74.79;96675.48;127886;1093;27462;-90
2021/06/12 03:23:38;;;;;;;6.48;5.08;;;;;;;14.12;74.84;96673.41;127771;1093;114321;-91
2021/06/12 03:26:11;;;;;;;6.30;5.63;;;;;;;14.12;74.91;96668.08;127854;1093;22786;-89
2021/06/12 03:28:42;;;;;;;7.35;5.95;;;;;;;14.13;75.03;96669.66;127818;1093;114396;-91
2021/06/12 03:31:14;;;;;;;7.88;5.20;;;;;;;14.15;75.10;96664.81;127871;1092;24460;-90
2021/06/12 03:33:45;;;;;;;6.20;5.30;;;;;;;14.17;74.91;96662.63;127838;1093;23454;-90
2021/06/12 03:36:17;;;;;;;7.33;5.38;;;;;;;14.20;75.10;96669.23;127779;1092;113719;-92
2021/06/12 03:38:48;;;;;;;6.83;4.83;;;;;;;14.24;75.17;96662.23;127958;1093;24280;-89
2021/06/12 03:41:20;;;;;;;5.78;4.60;;;;;;;14.31;75.21;96662.59;127835;1093;114343;-91
2021/06/12 03:43:52;;;;;;;6.75;5.35;;;;;;;14.37;74.85;96668.63;127850;1092;26856;-88
2021/06/12 03:46:24;;;;;;;7.58;5.85;;;;;;;14.42;75.01;96658.63;127718;1093;114342;-89
2021/06/12 03:48:56;;;;;;;7.20;5.68;;;;;;;14.50;75.04;96665.16;127891;1091;22792;-91
2021/06/12 03:51:28;;;;;;;6.98;5.33;;;;;;;14.55;74.98;96665.04;127873;1093;22793;-88
2021/06/12 03:54:00;;;;;;;8.05;5.58;;;;;;;14.60;74.90;96666.80;127791;1093;114135;-89
2021/06/12 03:56:36;;;;;;;7.88;5.20;;;;;;;14.69;74.91;96670.33;127877;1093;22836;-89
2021/06/12 03:59:08;;;;;;;7.25;5.20;;;;;;;14.75;74.82;96664.55;127783;1093;114267;-88
2021/06/12 04:01:41;;;;;;;7.68;5.98;;;;;;;14.83;74.62;96669.17;127861;1092;23158;-89
2021/06/12 04:04:12;;;;;;;6.35;5.35;;;;;;;14.90;74.52;96673.28;127885;1090;22813;-88
2021/06/12 04:06:43;;;;;;;8.18;5.70;;;;;;;14.97;74.29;96682.46;127760;1092;114223;-88
2021/06/12 04:09:13;;;;;;;8.10;5.75;;;;;;;15.03;74.15;96673.22;127853;1093;23955;-89
2021/06/12 04:11:45;;;;;;;6.10;5.30;;;;;;;15.10;74.25;96678.93;127780;1092;114234;-88
2021/06/12 04:14:16;;;;;;;9.25;5.83;;;;;;;15.15;74.01;96684.14;127917;1093;23373;-88
2021/06/12 04:16:46;;;;;;;6.53;5.68;;;;;;;15.18;73.76;96681.94;127836;1093;113821;-90
2021/06/12 04:19:17;;;;;;;6.38;4.95;;;;;;;15.22;73.87;96682.93;127920;1093;22877;-88
2021/06/12 04:21:49;;;;;;;7.58;5.30;;;;;;;15.28;73.86;96682.48;127919;1093;22800;-90
2021/06/12 04:24:20;;;;;;;7.33;5.48;;;;;;;15.36;73.71;96681.75;127821;1093;113880;-88
2021/06/12 04:26:51;;;;;;;7.65;5.60;;;;;;;15.43;73.55;96679.41;127857;1093;25407;-87
2021/06/12 04:29:21;;;;;;;6.98;5.00;;;;;;;15.53;73.35;96688.27;127789;1093;114126;-87
2021/06/12 04:31:52;;;;;;;8.00;5.28;;;;;;;15.59;73.24;96687.84;127873;1092;25256;-88
2021/06/12 04:34:23;;;;;;;8.68;5.28;;;;;;;15.68;73.08;96683.33;127764;1092;114425;-89
2021/06/12 04:36:54;;;;;;;7.83;5.83;;;;;;;15.76;73.04;96686.33;127859;1093;23567;-88
2021/06/12 04:39:25;;;;;;;7.20;5.35;;;;;;;15.86;72.78;96692.19;127844;1093;22822;-87
2021/06/12 04:41:56;;;;;;;7.60;5.75;;;;;;;15.95;72.57;96690.34;127765;1093;114388;-88
2021/06/12 04:44:27;;;;;;;8.93;5.95;;;;;;;16.03;72.58;96691.45;127850;1093;23374;-88
2021/06/12 04:46:58;;;;;;;6.90;5.58;;;;;;;16.14;72.38;96686.61;127736;1093;114655;-90
2021/06/12 04:49:28;;;;;;;6.93;5.45;;;;;;;16.22;72.25;96688.52;127851;1093;24924;-89
2021/06/12 04:51:59;;;;;;;8.35;5.20;;;;;;;16.31;72.24;96689.30;127854;1093;23890;-89
2021/06/12 04:54:30;;;;;;;6.15;5.45;;;;;;;16.45;72.04;96681.14;127688;1092;114105;-87
2021/06/12 04:57:01;;;;;;;6.75;5.68;;;;;;;16.57;72.26;96689.34;127831;1093;25877;-92
2021/06/12 04:59:32;;;;;;;6.78;5.25;;;;;;;16.70;72.06;96680.39;127745;1093;114260;-88
2021/06/12 05:02:03;;;;;;;6.78;5.28;;;;;;;16.80;71.65;96682.77;127863;1093;26279;-88
2021/06/12 05:04:34;;;;;;;6.20;4.90;;;;;;;16.90;71.22;96684.34;127756;1093;113897;-88
2021/06/12 05:07:06;;;;;;;7.13;5.65;;;;;;;17.00;70.96;96681.31;127896;1093;22989;-88
2021/06/12 05:09:37;;;;;;;8.63;5.47;;;;;;;17.15;70.90;96683.49;127894;1093;23456;-88
2021/06/12 05:12:10;;;;;;;6.28;5.23;;;;;;;17.31;70.76;96674.95;127787;1093;114048;-88
2021/06/12 05:14:43;;;;;;;6.98;5.00;;;;;;;17.51;70.50;96675.05;127924;1093;22829;-87
2021/06/12 05:17:16;;;;;;;6.53;5.28;;;;;;;17.74;69.93;96678.32;127769;1093;113684;-88
2021/06/12 05:19:47;;;;;;;7.05;5.13;;;;;;;17.98;69.68;96675.03;127946;1093;22792;-89
2021/06/12 05:22:23;;;;;;;7.13;5.70;;;;;;;18.52;69.55;96674.38;127964;1093;22771;-88
2021/06/12 05:24:55;;;;;;;6.40;5.45;;;;;;;19.25;68.41;96674.70;127792;1093;113503;-87
2021/06/12 05:27:26;;;;;;;6.80;5.23;;;;;;;19.98;67.13;96653.28;127889;1093;24512;-88
2021/06/12 05:29:57;;;;;;;7.18;5.18;;;;;;;20.70;65.82;96670.47;127781;1093;113679;-89
2021/06/12 05:32:28;;;;;;;7.88;5.53;;;;;;;21.29;64.35;96660.92;127856;1093;22829;-89
2021/06/12 05:35:00;;;;;;;8.88;5.03;;;;;;;21.75;62.94;96667.46;127740;1093;113864;-90
2021/06/12 05:37:31;;;;;;;7.08;5.18;;;;;;;22.11;62.03;96661.02;127904;1093;23289;-89
2021/06/12 05:40:02;;;;;;;7.33;5.18;;;;;;;22.56;60.93;96656.19;127857;1093;22804;-88
2021/06/12 05:42:33;;;;;;;8.63;5.35;;;;;;;22.95;59.99;96657.80;127775;1093;114219;-89
2021/06/12 05:45:06;;;;;;;6.33;4.30;;;;;;;23.30;59.08;96654.95;127848;1093;23643;-89
2021/06/12 05:47:37;;;;;;;5.28;4.40;;;;;;;23.72;58.31;96656.86;127781;1092;114220;-91
2021/06/12 05:50:10;;;;;;;7.00;4.98;;;;;;;23.84;57.11;96653.97;127864;1093;22816;-91
2021/06/12 05:52:41;;;;;;;6.17;4.77;;;;;;;23.96;56.78;96651.06;127765;1092;114358;-89
2021/06/12 05:55:13;;;;;;;6.30;4.58;;;;;;;24.24;55.72;96656.11;127867;1093;23455;-91
2021/06/12 05:57:44;;;;;;;7.80;4.28;;;;;;;24.53;54.70;96653.81;127847;1093;23116;-90
2021/06/12 06:00:17;;;;;;;6.03;4.58;;;;;;;24.82;54.23;96658.44;127759;1093;114255;-89
2021/06/12 06:02:48;;;;;;;8.73;4.20;;;;;;;25.03;53.64;96662.57;127925;1093;22841;-89
2021/06/12 06:05:19;;;;;;;5.43;4.33;;;;;;;25.22;52.37;96659.70;127789;1093;114272;-88
2021/06/12 06:07:50;;;;;;;6.30;4.23;;;;;;;25.31;52.41;96654.73;127965;1092;22801;-89
2021/06/12 06:10:21;;;;;;;5.08;3.93;;;;;;;25.61;51.99;96656.55;127931;1093;24366;-85
2021/06/12 06:12:52;;;;;;;5.93;4.08;;;;;;;25.80;50.66;96656.38;127746;1093;114108;-88
2021/06/12 06:15:24;;;;;;;5.70;3.68;;;;;;;26.07;50.66;96656.19;127859;1093;26849;-88
2021/06/12 06:17:55;;;;;;;6.75;4.10;;;;;;;26.31;50.22;96647.39;127765;1093;114144;-88
2021/06/12 06:20:26;;;;;;;3.85;3.35;;;;;;;26.41;48.95;96652.14;127873;1093;31060;-87
2021/06/12 06:22:56;;;;;;;6.30;3.85;;;;;;;26.60;48.94;96643.72;127792;1093;113947;-86
2021/06/12 06:25:28;;;;;;;4.13;3.60;;;;;;;26.86;48.14;96650.80;127883;1090;24292;-90
2021/06/12 06:27:58;;;;;;;4.93;3.55;;;;;;;27.14;47.58;96655.58;127846;1093;22794;-88
2021/06/12 06:30:29;;;;;;;3.70;3.25;;;;;;;27.12;46.67;96652.47;127772;1093;113745;-88
2021/06/12 06:33:00;;;;;;;3.88;3.40;;;;;;;27.16;46.14;96641.58;127872;1093;22798;-89
2021/06/12 06:35:32;;;;;;;5.70;4.00;;;;;;;27.42;46.46;96641.23;127700;1093;113707;-88
2021/06/12 06:38:03;;;;;;;5.30;3.50;;;;;;;27.97;46.32;96640.11;127869;1093;22857;-92
2021/06/12 06:40:34;;;;;;;5.03;3.20;;;;;;;28.68;45.56;96635.30;127762;1093;114270;-88
2021/06/12 06:43:05;;;;;;;3.93;3.40;;;;;;;28.75;43.42;96633.73;127865;1093;23529;-88
2021/06/12 06:45:36;;;;;;;7.38;3.45;;;;;;;28.87;42.58;96633.32;127833;1092;23078;-88
2021/06/12 06:48:08;;;;;;;4.28;3.18;;;;;;;29.23;42.65;96631.16;127786;1093;114296;-88
2021/06/12 06:50:40;;;;;;;5.60;3.30;;;;;;;29.25;40.62;96635.04;127866;1093;22822;-88
2021/06/12 06:53:11;;;;;;;3.43;3.10;;;;;;;28.88;39.65;96632.92;127751;1090;115194;-89
2021/06/12 06:55:42;;;;;;;4.13;3.45;;;;;;;28.36;40.13;96643.59;127881;1093;24001;-87
2021/06/12 06:58:13;;;;;;;5.25;3.00;;;;;;;28.16;40.11;96641.67;127904;1093;23649;-87
2021/06/12 07:00:44;;;;;;;5.00;3.13;;;;;;;28.09;38.01;96637.77;127828;1093;114428;-89
2021/06/12 07:03:15;;;;;;;4.05;3.53;;;;;;;27.60;38.57;96643.22;127909;1093;22789;-89
2021/06/12 07:05:46;;;;;;;5.03;3.43;;;;;;;27.49;38.75;96635.81;127818;1093;114095;-93
2021/06/12 07:08:16;;;;;;;3.18;2.88;;;;;;;27.42;38.96;96632.30;127891;1093;22816;-86
2021/06/12 07:10:48;;;;;;;5.30;4.38;;;;;;;27.20;38.50;96645.11;127870;1092;114246;-87
2021/06/12 07:13:23;;;;;;;3.28;2.98;;;;;;;27.32;39.03;96639.30;127968;1093;22823;-86
2021/06/12 07:15:54;;;;;;;4.83;2.95;;;;;;;27.96;38.97;96633.11;127974;1092;43451;-85
2021/06/12 07:18:24;;;;;;;3.95;3.55;;;;;;;27.94;37.98;96636.23;127854;1092;113787;-85
2021/06/12 07:20:55;;;;;;;7.65;3.58;;;;;;;27.86;38.42;96631.94;127928;1093;22802;-86
2021/06/12 07:23:26;;;;;;;4.25;2.90;;;;;;;28.20;39.15;96628.80;127807;1092;114429;-85
2021/06/12 07:25:57;;;;;;;3.08;2.30;;;;;;;28.94;38.22;96631.31;127903;1093;22840;-86
2021/06/12 07:28:28;;;;;;;5.88;3.00;;;;;;;28.85;36.34;96627.42;127904;1093;23573;-86
2021/06/12 07:30:59;;;;;;;4.85;2.85;;;;;;;28.54;36.54;96629.12;127827;1092;113519;-85
2021/06/12 07:33:31;;;;;;;4.58;3.20;;;;;;;28.91;37.89;96626.66;127929;1092;26287;-85
2021/06/12 07:36:02;;;;;;;4.45;3.05;;;;;;;29.47;37.04;96630.25;127806;1093;113745;-85
2021/06/12 07:38:33;;;;;;;5.20;2.70;;;;;;;30.04;37.13;96629.78;127928;1091;28761;-85
2021/06/12 07:41:04;;;;;;;3.78;2.93;;;;;;;30.58;36.86;96621.82;127840;1093;114270;-85
2021/06/12 07:43:35;;;;;;;4.40;3.08;;;;;;;30.63;35.73;96620.61;127927;1093;26580;-85
2021/06/12 07:46:06;;;;;;;5.43;3.05;;;;;;;31.00;36.26;96625.23;127911;1092;25408;-87
2021/06/12 07:48:37;;;;;;;4.90;2.93;;;;;;;31.28;35.46;96616.65;127785;1093;115189;-93
2021/06/12 07:51:08;;;;;;;5.28;3.28;;;;;;;30.14;33.83;96628.94;127907;1093;22830;-88
2021/06/12 07:53:39;;;;;;;12.33;5.85;;;;;;;29.68;34.82;96623.06;127799;1093;113877;-88
2021/06/12 07:56:10;;;;;;;8.50;5.15;;;;;;;28.90;34.29;96618.88;127882;1093;22794;-88
2021/06/12 07:58:41;;;;;;;4.00;3.05;;;;;;;28.41;34.48;96622.53;127781;1093;113875;-87
2021/06/12 08:01:12;;;;;;;4.05;2.70;;;;;;;28.35;34.40;96619.45;127923;1091;23163;-89
2021/06/12 08:03:43;;;;;;;4.30;2.78;;;;;;;28.25;34.72;96623.72;127916;1093;22796;-86
2021/06/12 08:06:14;;;;;;;2.93;2.53;;;;;;;28.78;35.67;96620.06;127811;1093;113685;-85
2021/06/12 08:08:45;;;;;;;3.70;2.58;;;;;;;29.40;34.92;96624.80;127858;1093;35989;-92
2021/06/12 08:11:16;;;;;;;4.25;2.55;;;;;;;29.55;34.65;96631.73;127856;1092;114470;-89
2021/06/12 08:13:47;;;;;;;5.08;3.00;;;;;;;29.63;34.58;96631.70;127950;1093;23129;-90
2021/06/12 08:16:18;;;;;;;4.90;2.35;;;;;;;29.76;34.06;96630.03;127957;1091;22827;-91
2021/06/12 08:18:49;;;;;;;4.90;2.73;;;;;;;29.78;34.11;96627.67;127812;1093;113207;-90
2021/06/12 08:21:20;;;;;;;4.13;2.75;;;;;;;29.54;33.93;96626.67;127947;1093;23650;-89
2021/06/12 08:23:51;;;;;;;2.85;2.40;;;;;;;29.77;34.07;96639.78;127812;1092;114094;-90
2021/06/12 08:26:22;;;;;;;3.68;2.28;;;;;;;29.54;33.21;96632.14;127879;1093;23962;-89
2021/06/12 08:28:54;;;;;;;3.93;2.78;;;;;;;29.42;34.08;96636.13;127780;1093;113889;-90
2021/06/12 08:31:25;;;;;;;4.18;2.70;;;;;;;29.63;34.41;96621.55;127923;1093;34024;-89
2021/06/12 08:33:56;;;;;;;3.13;2.40;;;;;;;29.80;34.96;96623.34;127905;1093;23952;-89
2021/06/12 08:36:27;;;;;;;3.58;2.48;;;;;;;30.42;33.84;96616.14;127783;1093;114300;-93
2021/06/12 08:38:58;;;;;;;4.68;2.30;;;;;;;30.54;33.67;96621.06;127893;1093;33229;-92
2021/06/12 08:41:29;;;;;;;3.30;2.33;;;;;;;30.41;32.86;96620.07;127728;1093;114132;-90
2021/06/12 08:44:02;;;;;;;5.00;2.70;;;;;;;30.37;32.96;96616.58;127874;1090;27611;-91
2021/06/12 08:46:33;;;;;;;4.23;2.18;;;;;;;30.37;33.90;96614.61;127892;1090;26884;-89
2021/06/12 08:49:04;;;;;;;4.48;2.40;;;;;;;30.07;32.39;96609.08;127798;1093;113805;-89
2021/06/12 08:51:35;;;;;;;4.10;2.30;;;;;;;29.04;34.29;96616.06;127894;1093;29987;-92
2021/06/12 10:16:01;;;;;;;3.05;2.00;;;;;;;24.68;40.60;96560.67;127877;1092;26226;-84
2021/06/12 10:18:33;;;;;;;2.45;2.20;;;;;;;24.49;40.89;96563.53;127440;1093;113191;-83
2021/06/12 10:21:06;;;;;;;2.40;2.20;;;;;;;24.56;40.74;96561.70;127443;1093;22803;-85
2021/06/12 10:23:40;;;;;;;2.40;2.10;;;;;;;24.73;40.50;96552.20;127387;1093;114413;-84
2021/06/12 10:26:13;;;;;;;2.73;2.13;;;;;;;24.88;40.70;96545.77;127475;1093;22915;-85
2021/06/12 10:28:45;;;;;;;2.50;1.88;;;;;;;24.85;40.63;96546.52;127529;1093;22787;-84
2021/06/12 10:31:19;;;;;;;2.03;1.53;;;;;;;24.62;40.21;96543.16;127374;1093;113925;-88
2021/06/12 10:33:52;;;;;;;3.00;2.05;;;;;;;24.34;40.40;96540.13;127620;1093;22944;-88
2021/06/12 10:36:26;;;;;;;3.37;2.30;;;;;;;24.19;41.21;96534.50;127572;1093;113090;-85
2021/06/12 10:38:57;;;;;;;2.43;1.80;;;;;;;24.19;41.04;96533.73;127761;1093;36461;-86
2021/06/12 10:41:31;;;;;;;2.50;2.23;;;;;;;24.19;41.20;96534.50;127789;1093;113988;-86
2021/06/12 10:44:04;;;;;;;2.83;2.20;;;;;;;24.28;41.36;96528.81;127758;1093;27602;-86
2021/06/12 10:46:45;;;;;;;2.83;1.95;;;;;;;24.53;41.72;96527.20;127590;1093;24208;-86
2021/06/12 10:49:28;;;;;;;2.40;1.80;;;;;;;24.68;41.51;96517.30;127486;1093;113321;-86
2021/06/12 10:52:01;;;;;;;3.25;2.20;;;;;;;24.83;41.12;96508.14;127490;1093;22848;-87
2021/06/12 10:54:37;;;;;;;3.05;2.03;;;;;;;24.70;41.02;96519.63;127350;1093;113346;-88
2021/06/12 10:57:19;;;;;;;4.73;2.55;;;;;;;24.69;40.88;96508.01;127488;1093;22875;-87
2021/06/12 10:59:52;;;;;;;2.35;2.15;;;;;;;24.79;40.79;96507.34;127405;1093;114158;-88
2021/06/12 11:02:28;;;;;;;2.88;2.50;;;;;;;24.72;41.41;96517.33;127492;1093;22786;-87
2021/06/12 11:05:02;;;;;;;3.68;2.30;;;;;;;24.65;41.01;96501.78;127442;1093;29506;-88
2021/06/12 11:07:35;;;;;;;2.80;2.50;;;;;;;24.81;42.94;96505.03;127429;1093;113184;-88
2021/06/12 11:10:25;;;;;;;2.30;2.10;;;;;;;24.97;41.31;96493.16;127499;1093;22834;-88
2021/06/12 11:13:19;;;;;;;3.13;2.70;;;;;;;24.74;40.10;96494.11;127370;1092;114072;-86
2021/06/12 11:15:49;;;;;;;3.93;2.63;;;;;;;24.53;40.60;96493.91;127622;1093;25281;-90
2021/06/12 11:18:22;;;;;;;2.88;2.40;;;;;;;24.49;40.61;96493.06;127388;1093;114051;-87
2021/06/12 11:21:10;;;;;;;3.57;1.90;;;;;;;24.63;40.76;96479.66;127612;1093;22789;-87
2021/06/12 11:23:53;;;;;;;3.85;2.13;;;;;;;24.74;40.67;96482.48;127505;1093;112988;-86
2021/06/12 11:26:26;;;;;;;2.75;2.28;;;;;;;24.65;40.16;96469.25;127614;1092;22788;-85
2021/06/12 11:29:14;;;;;;;4.30;2.10;;;;;;;24.67;39.86;96474.30;127586;1093;22823;-86
2021/06/12 11:31:45;;;;;;;2.58;1.98;;;;;;;24.67;40.29;96477.00;127468;1092;114316;-88
2021/06/12 11:34:21;;;;;;;2.80;2.50;;;;;;;24.79;40.01;96477.52;127636;1093;24405;-88
2021/06/12 11:37:07;;;;;;;2.73;2.18;;;;;;;24.93;40.58;96478.80;127502;1092;113674;-86
2021/06/12 11:39:50;;;;;;;2.60;2.25;;;;;;;24.78;40.02;96478.67;127603;1092;22880;-87
2021/06/12 11:42:21;;;;;;;2.40;2.20;;;;;;;24.43;40.06;96487.21;127566;1093;113372;-87
2021/06/12 11:44:52;;;;;;;2.73;2.43;;;;;;;24.39;40.51;96489.11;127599;1093;23715;-86
2021/06/12 11:47:29;;;;;;;3.38;2.65;;;;;;;24.58;40.71;96480.01;127549;1093;114755;-86
2021/06/12 11:50:00;;;;;;;3.90;2.10;;;;;;;24.76;40.09;96474.75;127622;1093;22819;-87
2021/06/12 11:52:39;;;;;;;2.40;2.20;;;;;;;24.88;39.70;96469.05;127604;1093;26543;-87
2021/06/12 11:55:16;;;;;;;3.18;2.38;;;;;;;24.94;39.96;96472.99;127487;1093;113324;-87
2021/06/12 11:57:49;;;;;;;2.18;1.90;;;;;;;25.11;40.05;96449.91;127691;1093;22806;-87
2021/06/12 12:00:32;;;;;;;2.73;1.93;;;;;;;25.04;39.13;96463.40;127565;1093;113316;-87
2021/06/12 12:03:06;;;;;;;1.58;1.48;;;;;;;24.98;40.20;96462.95;127484;1093;26760;-89
2021/06/12 12:05:40;;;;;;;3.78;1.73;;;;;;;25.20;40.06;96455.80;127491;1093;114563;-86
2021/06/12 12:08:13;;;;;;;2.65;1.98;;;;;;;25.14;39.10;96451.86;127627;1093;22871;-87
2021/06/12 12:10:46;;;;;;;2.53;1.90;;;;;;;24.82;38.50;96446.94;127604;1093;27218;-87
2021/06/12 12:13:35;;;;;;;2.58;2.38;;;;;;;24.44;39.08;96452.77;127508;1093;114631;-87
2021/06/12 12:16:19;;;;;;;2.43;2.23;;;;;;;24.33;39.55;96441.03;127911;1093;22783;-87
2021/06/12 12:18:53;;;;;;;2.53;1.63;;;;;;;24.59;39.35;96427.35;127901;1093;113725;-88
2021/06/12 12:21:34;;;;;;;1.58;1.25;;;;;;;24.70;37.28;96417.39;127935;1092;25221;-86
2021/06/12 12:24:08;;;;;;;1.83;1.50;;;;;;;24.79;36.85;96409.73;127794;1092;113875;-87
2021/06/12 12:26:52;;;;;;;1.48;1.38;;;;;;;24.92;37.41;96396.66;127875;1091;22935;-82
2021/06/12 12:29:27;;;;;;;1.70;1.60;;;;;;;25.07;37.87;96398.34;127827;1093;114434;-82
2021/06/12 12:32:00;;;;;;;1.85;1.70;;;;;;;25.18;37.10;96387.54;127911;1093;22852;-85
2021/06/12 12:34:38;;;;;;;1.90;1.33;;;;;;;25.20;37.55;96381.77;127861;1093;24878;-85
2021/06/12 12:37:17;;;;;;;1.60;1.50;;;;;;;25.25;37.66;96374.03;127807;1093;113683;-84
2021/06/12 12:39:51;;;;;;;3.18;1.50;;;;;;;25.19;37.09;96366.61;127923;1093;23940;-85
2021/06/12 12:42:24;;;;;;;1.75;1.50;;;;;;;24.99;36.76;96352.52;127810;1093;113431;-83
2021/06/12 12:44:58;;;;;;;1.75;1.45;;;;;;;24.95;36.58;96357.16;127954;1093;23332;-83
2021/06/12 12:47:30;;;;;;;1.85;1.40;;;;;;;24.96;36.75;96356.00;127814;1092;114247;-84
2021/06/12 12:50:05;;;;;;;2.58;1.83;;;;;;;24.92;35.96;96347.06;127907;1092;22820;-87
2021/06/12 12:52:36;;;;;;;2.20;1.50;;;;;;;24.94;36.04;96344.75;127900;1092;22809;-84
2021/06/12 12:55:10;;;;;;;8.23;4.85;;;;;;;24.95;37.11;96338.17;127802;1092;113809;-84
2021/06/12 12:57:46;;;;;;;2.23;1.98;;;;;;;25.02;36.38;96336.30;128142;1092;22823;-82
2021/06/12 13:00:20;;;;;;;2.80;1.40;;;;;;;24.96;36.24;96329.66;128715;1092;113612;-84
2021/06/12 13:02:54;;;;;;;2.33;1.73;;;;;;;25.00;36.62;96324.24;129959;1093;22620;-84
2021/06/12 13:05:26;;;;;;;2.80;2.10;;;;;;;25.11;37.29;96325.12;129766;1093;113384;-84
2021/06/12 13:08:02;;;;;;;2.78;2.35;;;;;;;25.25;37.09;96322.48;128962;1091;31606;-83
2021/06/12 13:10:38;;;;;;;5.00;2.28;;;;;;;25.40;36.74;96307.03;128077;1093;26287;-82